sensor_id;sensor_type;location;lat;lon;timestamp;pressure;altitude;pressure_sealevel;temperature;humidity
71795;BME280;59641;45.188;5.712;2024-01-10T00:02:18;99859.47;;;6.42;62.14
71795;BME280;59641;45.188;5.712;2024-01-10T00:04:44;99852.28;;;6.42;62.04
71795;BME280;59641;45.188;5.712;2024-01-10T00:07:09;99848.63;;;6.43;62.02
71795;BME280;59641;45.188;5.712;2024-01-10T00:09:34;99850.28;;;6.44;61.79
71795;BME280;59641;45.188;5.712;2024-01-10T00:12:00;99845.97;;;6.43;61.66
71795;BME280;59641;45.188;5.712;2024-01-10T00:14:25;99851.31;;;6.43;61.73
71795;BME280;59641;45.188;5.712;2024-01-10T00:16:50;99846.13;;;6.42;61.63
71795;BME280;59641;45.188;5.712;2024-01-10T00:19:16;99855.34;;;6.39;61.69
71795;BME280;59641;45.188;5.712;2024-01-10T00:21:41;99857.16;;;6.38;61.87
71795;BME280;59641;45.188;5.712;2024-01-10T00:24:06;99855.97;;;6.41;61.88
71795;BME280;59641;45.188;5.712;2024-01-10T00:26:32;99852.28;;;6.42;61.74
71795;BME280;59641;45.188;5.712;2024-01-10T00:28:57;99855.97;;;6.41;61.60
71795;BME280;59641;45.188;5.712;2024-01-10T00:31:22;99858.81;;;6.39;61.78
71795;BME280;59641;45.188;5.712;2024-01-10T00:33:48;99858.00;;;6.39;61.61
71795;BME280;59641;45.188;5.712;2024-01-10T00:36:13;99856.34;;;6.38;61.78
71795;BME280;59641;45.188;5.712;2024-01-10T00:38:38;99859.03;;;6.38;61.74
71795;BME280;59641;45.188;5.712;2024-01-10T00:41:04;99849.34;;;6.37;61.68
71795;BME280;59641;45.188;5.712;2024-01-10T00:43:29;99850.38;;;6.36;61.52
71795;BME280;59641;45.188;5.712;2024-01-10T00:45:55;99850.38;;;6.36;61.75
71795;BME280;59641;45.188;5.712;2024-01-10T00:48:20;99852.00;;;6.37;61.73
71795;BME280;59641;45.188;5.712;2024-01-10T00:50:45;99850.00;;;6.39;61.79
71795;BME280;59641;45.188;5.712;2024-01-10T00:53:11;99847.34;;;6.39;61.69
71795;BME280;59641;45.188;5.712;2024-01-10T00:55:36;99851.69;;;6.40;61.75
71795;BME280;59641;45.188;5.712;2024-01-10T00:58:02;99852.50;;;6.40;61.78
71795;BME280;59641;45.188;5.712;2024-01-10T01:00:27;99849.47;;;6.44;61.79
71795;BME280;59641;45.188;5.712;2024-01-10T01:02:53;99847.44;;;6.46;61.59
71795;BME280;59641;45.188;5.712;2024-01-10T01:05:18;99850.94;;;6.46;61.74
71795;BME280;59641;45.188;5.712;2024-01-10T01:19:49;99840.28;;;6.46;61.59
71795;BME280;59641;45.188;5.712;2024-01-10T01:22:15;99837.44;;;6.48;61.61
71795;BME280;59641;45.188;5.712;2024-01-10T01:24:40;99840.09;;;6.48;61.47
71795;BME280;59641;45.188;5.712;2024-01-10T01:27:05;99841.75;;;6.49;61.55
71795;BME280;59641;45.188;5.712;2024-01-10T01:42:58;99840.91;;;6.48;61.28
71795;BME280;59641;45.188;5.712;2024-01-10T01:45:23;99834.56;;;6.49;61.52
71795;BME280;59641;45.188;5.712;2024-01-10T01:47:49;99841.41;;;6.52;61.27
71795;BME280;59641;45.188;5.712;2024-01-10T01:50:15;99848.22;;;6.54;61.29
71795;BME280;59641;45.188;5.712;2024-01-10T01:52:40;99848.00;;;6.56;61.18
71795;BME280;59641;45.188;5.712;2024-01-10T01:55:07;99852.50;;;6.55;61.26
71795;BME280;59641;45.188;5.712;2024-01-10T01:57:33;99857.47;;;6.58;61.20
71795;BME280;59641;45.188;5.712;2024-01-10T01:59:59;99850.22;;;6.52;61.07
71795;BME280;59641;45.188;5.712;2024-01-10T02:02:24;99845.53;;;6.54;61.10
71795;BME280;59641;45.188;5.712;2024-01-10T02:04:50;99846.34;;;6.55;60.92
71795;BME280;59641;45.188;5.712;2024-01-10T02:07:15;99846.34;;;6.55;61.02
71795;BME280;59641;45.188;5.712;2024-01-10T02:09:41;99848.38;;;6.53;61.03
71795;BME280;59641;45.188;5.712;2024-01-10T02:12:06;99850.22;;;6.52;60.93
71795;BME280;59641;45.188;5.712;2024-01-10T02:14:32;99846.91;;;6.50;61.11
71795;BME280;59641;45.188;5.712;2024-01-10T02:16:57;99847.56;;;6.52;61.16
71795;BME280;59641;45.188;5.712;2024-01-10T02:19:23;99838.72;;;6.52;61.11
71795;BME280;59641;45.188;5.712;2024-01-10T02:21:49;99838.09;;;6.50;61.11
71795;BME280;59641;45.188;5.712;2024-01-10T02:24:15;99839.72;;;6.51;60.98
71795;BME280;59641;45.188;5.712;2024-01-10T02:26:40;99842.56;;;6.49;60.99
71795;BME280;59641;45.188;5.712;2024-01-10T02:29:06;99848.91;;;6.48;61.08
71795;BME280;59641;45.188;5.712;2024-01-10T02:31:31;99847.06;;;6.49;61.08
71795;BME280;59641;45.188;5.712;2024-01-10T02:33:57;99842.75;;;6.48;60.83
71795;BME280;59641;45.188;5.712;2024-01-10T02:36:22;99834.28;;;6.44;60.81
71795;BME280;59641;45.188;5.712;2024-01-10T02:38:47;99834.75;;;6.48;61.08
71795;BME280;59641;45.188;5.712;2024-01-10T02:41:13;99843.59;;;6.48;60.97
71795;BME280;59641;45.188;5.712;2024-01-10T02:43:38;99841.94;;;6.47;61.19
71795;BME280;59641;45.188;5.712;2024-01-10T02:46:04;99848.75;;;6.50;61.26
71795;BME280;59641;45.188;5.712;2024-01-10T02:48:29;99847.56;;;6.52;61.35
71795;BME280;59641;45.188;5.712;2024-01-10T02:50:54;99848.22;;;6.54;61.31
71795;BME280;59641;45.188;5.712;2024-01-10T02:53:21;99850.66;;;6.56;61.22
71795;BME280;59641;45.188;5.712;2024-01-10T02:55:46;99854.81;;;6.58;61.19
71795;BME280;59641;45.188;5.712;2024-01-10T02:58:11;99844.34;;;6.57;60.97
71795;BME280;59641;45.188;5.712;2024-01-10T03:00:37;99850.50;;;6.57;61.03
71795;BME280;59641;45.188;5.712;2024-01-10T03:03:03;99847.19;;;6.55;61.10
71795;BME280;59641;45.188;5.712;2024-01-10T03:05:28;99851.31;;;6.58;61.17
71795;BME280;59641;45.188;5.712;2024-01-10T03:07:54;99841.31;;;6.60;61.33
71795;BME280;59641;45.188;5.712;2024-01-10T03:10:19;99851.16;;;6.59;61.11
71795;BME280;59641;45.188;5.712;2024-01-10T03:12:44;99848.28;;;6.61;61.16
71795;BME280;59641;45.188;5.712;2024-01-10T03:15:10;99843.59;;;6.63;61.37
71795;BME280;59641;45.188;5.712;2024-01-10T03:17:35;99838.25;;;6.63;61.15
71795;BME280;59641;45.188;5.712;2024-01-10T03:20:02;99826.59;;;6.64;61.01
71795;BME280;59641;45.188;5.712;2024-01-10T03:22:30;99835.44;;;6.65;60.96
71795;BME280;59641;45.188;5.712;2024-01-10T03:24:55;99834.59;;;6.64;61.00
71795;BME280;59641;45.188;5.712;2024-01-10T03:27:21;99832.75;;;6.65;60.97
71795;BME280;59641;45.188;5.712;2024-01-10T03:29:46;99839.75;;;6.66;60.77
71795;BME280;59641;45.188;5.712;2024-01-10T03:32:11;99830.09;;;6.65;60.83
71795;BME280;59641;45.188;5.712;2024-01-10T03:34:36;99829.06;;;6.66;60.73
71795;BME280;59641;45.188;5.712;2024-01-10T03:37:02;99826.59;;;6.64;60.91
71795;BME280;59641;45.188;5.712;2024-01-10T03:39:27;99827.44;;;6.65;60.77
71795;BME280;59641;45.188;5.712;2024-01-10T03:41:52;99825.59;;;6.65;60.66
71795;BME280;59641;45.188;5.712;2024-01-10T03:44:18;99816.75;;;6.65;60.59
71795;BME280;59641;45.188;5.712;2024-01-10T03:46:43;99823.75;;;6.66;60.65
71795;BME280;59641;45.188;5.712;2024-01-10T03:49:09;99815.09;;;6.64;60.50
71795;BME280;59641;45.188;5.712;2024-01-10T03:51:34;99824.13;;;6.63;60.56
71795;BME280;59641;45.188;5.712;2024-01-10T03:54:00;99817.13;;;6.61;60.47
71795;BME280;59641;45.188;5.712;2024-01-10T03:56:25;99828.63;;;6.62;60.54
71795;BME280;59641;45.188;5.712;2024-01-10T03:58:51;99829.63;;;6.61;60.52
71795;BME280;59641;45.188;5.712;2024-01-10T04:01:16;99817.31;;;6.60;60.38
71795;BME280;59641;45.188;5.712;2024-01-10T04:03:42;99814.00;;;6.58;60.37
71795;BME280;59641;45.188;5.712;2024-01-10T04:06:08;99817.69;;;6.57;60.37
71795;BME280;59641;45.188;5.712;2024-01-10T04:08:33;99815.34;;;6.54;60.36
71795;BME280;59641;45.188;5.712;2024-01-10T04:10:58;99817.19;;;6.53;60.44
71795;BME280;59641;45.188;5.712;2024-01-10T04:13:24;99817.03;;;6.55;60.54
71795;BME280;59641;45.188;5.712;2024-01-10T04:15:49;99805.53;;;6.54;60.48
71795;BME280;59641;45.188;5.712;2024-01-10T04:18:14;99809.03;;;6.55;60.48
71795;BME280;59641;45.188;5.712;2024-01-10T04:20:40;99807.56;;;6.52;60.38
71795;BME280;59641;45.188;5.712;2024-01-10T04:23:05;99808.94;;;6.48;60.41
71795;BME280;59641;45.188;5.712;2024-01-10T04:25:30;99806.91;;;6.50;60.53
71795;BME280;59641;45.188;5.712;2024-01-10T04:27:56;99814.09;;;6.50;60.51
71795;BME280;59641;45.188;5.712;2024-01-10T04:30:22;99804.78;;;6.46;60.50
71795;BME280;59641;45.188;5.712;2024-01-10T04:32:48;99807.47;;;6.46;60.66
71795;BME280;59641;45.188;5.712;2024-01-10T04:35:13;99805.63;;;6.46;60.60
71795;BME280;59641;45.188;5.712;2024-01-10T04:37:38;99796.78;;;6.46;60.46
71795;BME280;59641;45.188;5.712;2024-01-10T04:40:04;99801.94;;;6.47;60.54
71795;BME280;59641;45.188;5.712;2024-01-10T04:42:30;99808.09;;;6.48;60.44
71795;BME280;59641;45.188;5.712;2024-01-10T04:44:56;99808.09;;;6.48;60.67
71795;BME280;59641;45.188;5.712;2024-01-10T04:47:21;99803.44;;;6.50;60.50
71795;BME280;59641;45.188;5.712;2024-01-10T04:49:46;99798.91;;;6.50;60.34
71795;BME280;59641;45.188;5.712;2024-01-10T04:52:12;99802.56;;;6.49;60.27
71795;BME280;59641;45.188;5.712;2024-01-10T04:54:37;99802.78;;;6.48;60.13
71795;BME280;59641;45.188;5.712;2024-01-10T04:57:03;99805.81;;;6.45;60.26
71795;BME280;59641;45.188;5.712;2024-01-10T04:59:28;99804.13;;;6.44;60.26
71795;BME280;59641;45.188;5.712;2024-01-10T05:01:54;99805.97;;;6.43;60.36
71795;BME280;59641;45.188;5.712;2024-01-10T05:04:20;99816.47;;;6.45;60.48
71795;BME280;59641;45.188;5.712;2024-01-10T05:06:45;99802.28;;;6.44;60.40
71795;BME280;59641;45.188;5.712;2024-01-10T05:09:11;99804.97;;;6.44;60.47
71795;BME280;59641;45.188;5.712;2024-01-10T05:11:37;99811.16;;;6.45;60.46
71795;BME280;59641;45.188;5.712;2024-01-10T05:14:02;99812.78;;;6.46;60.54
71795;BME280;59641;45.188;5.712;2024-01-10T05:16:28;99818.13;;;6.46;60.46
71795;BME280;59641;45.188;5.712;2024-01-10T05:18:53;99822.44;;;6.47;60.49
71795;BME280;59641;45.188;5.712;2024-01-10T05:21:19;99817.94;;;6.47;60.59
71795;BME280;59641;45.188;5.712;2024-01-10T05:23:44;99816.09;;;6.48;60.52
71795;BME280;59641;45.188;5.712;2024-01-10T05:26:10;99816.94;;;6.48;60.65
71795;BME280;59641;45.188;5.712;2024-01-10T05:28:35;99815.09;;;6.49;60.59
71795;BME280;59641;45.188;5.712;2024-01-10T05:31:01;99815.91;;;6.49;60.51
71795;BME280;59641;45.188;5.712;2024-01-10T05:33:26;99817.56;;;6.50;60.53
71795;BME280;59641;45.188;5.712;2024-01-10T05:35:51;99821.72;;;6.53;60.64
71795;BME280;59641;45.188;5.712;2024-01-10T05:38:17;99821.34;;;6.56;60.59
71795;BME280;59641;45.188;5.712;2024-01-10T05:40:42;99818.50;;;6.57;60.63
71795;BME280;59641;45.188;5.712;2024-01-10T05:43:07;99818.31;;;6.59;60.48
71795;BME280;59641;45.188;5.712;2024-01-10T05:45:33;99824.81;;;6.56;60.42
71795;BME280;59641;45.188;5.712;2024-01-10T05:47:58;99829.34;;;6.56;60.53
71795;BME280;59641;45.188;5.712;2024-01-10T05:50:24;99839.84;;;6.57;60.39
71795;BME280;59641;45.188;5.712;2024-01-10T05:52:49;99832.66;;;6.58;60.44
71795;BME280;59641;45.188;5.712;2024-01-10T05:55:15;99824.81;;;6.56;60.41
71795;BME280;59641;45.188;5.712;2024-01-10T05:57:40;99819.50;;;6.56;60.49
71795;BME280;59641;45.188;5.712;2024-01-10T06:00:06;99823.00;;;6.57;60.74
71795;BME280;59641;45.188;5.712;2024-01-10T06:02:36;99822.81;;;6.58;60.65
71795;BME280;59641;45.188;5.712;2024-01-10T06:05:07;99826.31;;;6.59;60.49
71795;BME280;59641;45.188;5.712;2024-01-10T06:07:34;99824.66;;;6.58;60.53
71795;BME280;59641;45.188;5.712;2024-01-10T06:09:59;99822.63;;;6.60;60.69
71795;BME280;59641;45.188;5.712;2024-01-10T06:12:25;99826.94;;;6.61;60.40
71795;BME280;59641;45.188;5.712;2024-01-10T06:14:50;99833.13;;;6.61;60.54
71795;BME280;59641;45.188;5.712;2024-01-10T06:17:16;99826.78;;;6.63;60.57
71795;BME280;59641;45.188;5.712;2024-01-10T06:19:41;99829.28;;;6.64;60.61
71795;BME280;59641;45.188;5.712;2024-01-10T06:22:06;99825.59;;;6.65;60.55
71795;BME280;59641;45.188;5.712;2024-01-10T06:24:32;99830.09;;;6.65;60.35
71795;BME280;59641;45.188;5.712;2024-01-10T06:26:57;99832.13;;;6.63;60.49
71795;BME280;59641;45.188;5.712;2024-01-10T06:29:22;99831.94;;;6.64;60.44
71795;BME280;59641;45.188;5.712;2024-01-10T06:31:48;99830.25;;;6.63;60.38
71795;BME280;59641;45.188;5.712;2024-01-10T06:34:13;99828.41;;;6.64;60.46
71795;BME280;59641;45.188;5.712;2024-01-10T06:36:38;99835.59;;;6.63;60.60
71795;BME280;59641;45.188;5.712;2024-01-10T06:39:04;99842.59;;;6.64;60.47
71795;BME280;59641;45.188;5.712;2024-01-10T06:41:29;99844.25;;;6.65;60.50
71795;BME280;59641;45.188;5.712;2024-01-10T06:43:54;99833.75;;;6.64;60.19
71795;BME280;59641;45.188;5.712;2024-01-10T06:46:20;99837.44;;;6.63;60.53
71795;BME280;59641;45.188;5.712;2024-01-10T06:48:46;99833.59;;;6.65;60.53
71795;BME280;59641;45.188;5.712;2024-01-10T06:51:13;99839.75;;;6.66;60.43
71795;BME280;59641;45.188;5.712;2024-01-10T06:53:39;99837.72;;;6.68;60.39
71795;BME280;59641;45.188;5.712;2024-01-10T06:56:05;99845.56;;;6.69;60.33
71795;BME280;59641;45.188;5.712;2024-01-10T06:58:31;99851.72;;;6.70;60.39
71795;BME280;59641;45.188;5.712;2024-01-10T07:00:56;99853.56;;;6.69;60.38
71795;BME280;59641;45.188;5.712;2024-01-10T07:03:21;99857.88;;;6.70;60.31
71795;BME280;59641;45.188;5.712;2024-01-10T07:05:47;99864.00;;;6.71;60.30
71795;BME280;59641;45.188;5.712;2024-01-10T07:08:14;99858.69;;;6.71;60.26
71795;BME280;59641;45.188;5.712;2024-01-10T07:10:39;99852.91;;;6.67;60.17
71795;BME280;59641;45.188;5.712;2024-01-10T07:13:04;99862.53;;;6.68;60.23
71795;BME280;59641;45.188;5.712;2024-01-10T07:15:30;99866.88;;;6.69;60.08
71795;BME280;59641;45.188;5.712;2024-01-10T07:17:55;99861.56;;;6.69;60.11
71795;BME280;59641;45.188;5.712;2024-01-10T07:20:21;99864.22;;;6.69;60.09
71795;BME280;59641;45.188;5.712;2024-01-10T07:22:49;99874.88;;;6.69;60.04
71795;BME280;59641;45.188;5.712;2024-01-10T07:25:15;99882.88;;;6.69;60.14
71795;BME280;59641;45.188;5.712;2024-01-10T07:27:41;99885.72;;;6.68;59.92
71795;BME280;59641;45.188;5.712;2024-01-10T07:30:07;99890.41;;;6.66;59.92
71795;BME280;59641;45.188;5.712;2024-01-10T07:32:45;99892.25;;;6.65;59.90
71795;BME280;59641;45.188;5.712;2024-01-10T07:35:12;99879.94;;;6.64;59.95
71795;BME280;59641;45.188;5.712;2024-01-10T07:37:39;99885.28;;;6.64;60.02
71795;BME280;59641;45.188;5.712;2024-01-10T07:40:06;99888.56;;;6.66;59.89
71795;BME280;59641;45.188;5.712;2024-01-10T07:42:33;99890.25;;;6.67;59.91
71795;BME280;59641;45.188;5.712;2024-01-10T07:45:00;99888.38;;;6.68;59.93
71795;BME280;59641;45.188;5.712;2024-01-10T07:47:25;99894.75;;;6.67;59.77
71795;BME280;59641;45.188;5.712;2024-01-10T07:49:50;99891.59;;;6.63;59.90
71795;BME280;59641;45.188;5.712;2024-01-10T07:52:16;99891.81;;;6.61;59.94
71795;BME280;59641;45.188;5.712;2024-01-10T07:54:42;99894.47;;;6.61;59.92
71795;BME280;59641;45.188;5.712;2024-01-10T07:57:07;99897.13;;;6.61;59.96
71795;BME280;59641;45.188;5.712;2024-01-10T07:59:33;99900.63;;;6.62;59.92
71795;BME280;59641;45.188;5.712;2024-01-10T08:02:00;99899.81;;;6.61;59.78
71795;BME280;59641;45.188;5.712;2024-01-10T08:04:26;99897.97;;;6.62;59.90
71795;BME280;59641;45.188;5.712;2024-01-10T08:06:52;99902.63;;;6.60;59.76
71795;BME280;59641;45.188;5.712;2024-01-10T08:09:17;99901.63;;;6.61;59.79
71795;BME280;59641;45.188;5.712;2024-01-10T08:11:44;99899.81;;;6.61;59.83
71795;BME280;59641;45.188;5.712;2024-01-10T08:14:10;99901.97;;;6.58;59.55
71795;BME280;59641;45.188;5.712;2024-01-10T08:16:35;99911.34;;;6.54;59.67
71795;BME280;59641;45.188;5.712;2024-01-10T08:19:00;99916.69;;;6.54;59.78
71795;BME280;59641;45.188;5.712;2024-01-10T08:21:26;99909.31;;;6.56;59.70
71795;BME280;59641;45.188;5.712;2024-01-10T08:23:51;99908.69;;;6.54;59.61
71795;BME280;59641;45.188;5.712;2024-01-10T08:26:16;99911.72;;;6.51;59.66
71795;BME280;59641;45.188;5.712;2024-01-10T08:28:42;99903.06;;;6.49;59.85
71795;BME280;59641;45.188;5.712;2024-01-10T08:31:08;99903.72;;;6.51;59.88
71795;BME280;59641;45.188;5.712;2024-01-10T08:33:33;99908.06;;;6.52;59.84
71795;BME280;59641;45.188;5.712;2024-01-10T08:35:59;99911.34;;;6.54;59.93
71795;BME280;59641;45.188;5.712;2024-01-10T08:38:24;99900.34;;;6.57;59.77
71795;BME280;59641;45.188;5.712;2024-01-10T08:40:49;99896.47;;;6.59;59.78
71795;BME280;59641;45.188;5.712;2024-01-10T08:43:14;99899.97;;;6.60;59.72
71795;BME280;59641;45.188;5.712;2024-01-10T08:45:40;99902.25;;;6.63;59.93
71795;BME280;59641;45.188;5.712;2024-01-10T08:48:05;99907.22;;;6.66;59.84
71795;BME280;59641;45.188;5.712;2024-01-10T08:50:32;99909.72;;;6.68;59.85
71795;BME280;59641;45.188;5.712;2024-01-10T08:52:59;99909.34;;;6.71;59.76
71795;BME280;59641;45.188;5.712;2024-01-10T08:55:24;99895.84;;;6.72;59.72
71795;BME280;59641;45.188;5.712;2024-01-10T08:57:50;99900.16;;;6.73;59.69
71795;BME280;59641;45.188;5.712;2024-01-10T09:00:15;99903.31;;;6.77;59.83
71795;BME280;59641;45.188;5.712;2024-01-10T09:02:41;99908.91;;;6.82;59.74
71795;BME280;59641;45.188;5.712;2024-01-10T09:05:07;99906.09;;;6.83;59.51
71795;BME280;59641;45.188;5.712;2024-01-10T09:07:36;99899.72;;;6.85;59.39
71795;BME280;59641;45.188;5.712;2024-01-10T09:10:01;99900.09;;;6.81;59.43
71795;BME280;59641;45.188;5.712;2024-01-10T09:12:26;99903.97;;;6.79;59.19
71795;BME280;59641;45.188;5.712;2024-01-10T09:14:53;99920.13;;;6.77;59.52
71795;BME280;59641;45.188;5.712;2024-01-10T09:17:18;99922.81;;;6.77;59.54
71795;BME280;59641;45.188;5.712;2024-01-10T09:19:44;99919.59;;;6.82;59.60
71795;BME280;59641;45.188;5.712;2024-01-10T09:22:09;99926.41;;;6.85;59.46
71795;BME280;59641;45.188;5.712;2024-01-10T09:24:34;99931.75;;;6.85;59.48
71795;BME280;59641;45.188;5.712;2024-01-10T09:27:00;99928.06;;;6.86;59.28
71795;BME280;59641;45.188;5.712;2024-01-10T09:29:25;99930.75;;;6.86;59.21
71795;BME280;59641;45.188;5.712;2024-01-10T09:31:51;99923.91;;;6.83;59.12
71795;BME280;59641;45.188;5.712;2024-01-10T09:34:16;99925.75;;;6.82;59.18
71795;BME280;59641;45.188;5.712;2024-01-10T09:36:42;99920.25;;;6.84;59.23
71795;BME280;59641;45.188;5.712;2024-01-10T09:39:09;99921.44;;;6.81;58.99
71795;BME280;59641;45.188;5.712;2024-01-10T09:41:43;99934.94;;;6.80;59.18
71795;BME280;59641;45.188;5.712;2024-01-10T09:44:10;99922.09;;;6.83;59.35
71795;BME280;59641;45.188;5.712;2024-01-10T09:46:38;99924.38;;;6.87;59.54
71795;BME280;59641;45.188;5.712;2024-01-10T09:49:06;99919.22;;;6.85;59.36
71795;BME280;59641;45.188;5.712;2024-01-10T09:51:33;99916.38;;;6.87;59.31
71795;BME280;59641;45.188;5.712;2024-01-10T09:54:01;99913.88;;;6.85;59.06
71795;BME280;59641;45.188;5.712;2024-01-10T09:56:28;99920.06;;;6.86;59.08
71795;BME280;59641;45.188;5.712;2024-01-10T09:58:55;99914.91;;;6.84;59.07
71795;BME280;59641;45.188;5.712;2024-01-10T10:01:23;99926.41;;;6.85;59.16
71795;BME280;59641;45.188;5.712;2024-01-10T10:03:49;99927.06;;;6.87;59.42
71795;BME280;59641;45.188;5.712;2024-01-10T10:06:15;99926.88;;;6.88;59.22
71795;BME280;59641;45.188;5.712;2024-01-10T10:08:40;99921.34;;;6.90;59.28
71795;BME280;59641;45.188;5.712;2024-01-10T10:11:07;99914.16;;;6.90;59.20
71795;BME280;59641;45.188;5.712;2024-01-10T10:13:32;99916.50;;;6.93;59.06
71795;BME280;59641;45.188;5.712;2024-01-10T10:16:02;99917.97;;;6.96;59.11
71795;BME280;59641;45.188;5.712;2024-01-10T10:18:29;99925.59;;;6.99;59.00
71795;BME280;59641;45.188;5.712;2024-01-10T10:21:10;99917.22;;;7.02;59.22
71795;BME280;59641;45.188;5.712;2024-01-10T10:23:40;99919.34;;;7.07;59.11
71795;BME280;59641;45.188;5.712;2024-01-10T10:26:14;99917.03;;;7.03;58.88
71795;BME280;59641;45.188;5.712;2024-01-10T10:28:45;99923.56;;;7.01;58.98
71795;BME280;59641;45.188;5.712;2024-01-10T10:31:11;99918.06;;;7.02;59.16
71795;BME280;59641;45.188;5.712;2024-01-10T10:33:37;99912.53;;;7.04;58.86
71795;BME280;59641;45.188;5.712;2024-01-10T10:36:02;99922.00;;;7.07;58.93
71795;BME280;59641;45.188;5.712;2024-01-10T10:38:28;99919.97;;;7.09;58.91
71795;BME280;59641;45.188;5.712;2024-01-10T10:40:55;99920.47;;;7.12;58.89
71795;BME280;59641;45.188;5.712;2024-01-10T10:43:21;99922.28;;;7.12;58.88
71795;BME280;59641;45.188;5.712;2024-01-10T10:45:49;99913.28;;;7.13;58.88
71795;BME280;59641;45.188;5.712;2024-01-10T10:48:19;99918.41;;;7.14;58.76
71795;BME280;59641;45.188;5.712;2024-01-10T10:53:25;99912.25;;;7.14;58.79
71795;BME280;59641;45.188;5.712;2024-01-10T10:55:53;99910.41;;;7.14;58.72
71795;BME280;59641;45.188;5.712;2024-01-10T10:58:20;99911.06;;;7.16;58.56
71795;BME280;59641;45.188;5.712;2024-01-10T11:00:47;99905.91;;;7.15;58.53
71795;BME280;59641;45.188;5.712;2024-01-10T11:03:14;99905.72;;;7.16;58.71
71795;BME280;59641;45.188;5.712;2024-01-10T11:05:41;99910.88;;;7.18;58.80
71795;BME280;59641;45.188;5.712;2024-01-10T11:08:09;99912.34;;;7.20;58.73
71795;BME280;59641;45.188;5.712;2024-01-10T11:10:38;99905.00;;;7.22;58.68
71795;BME280;59641;45.188;5.712;2024-01-10T11:13:46;99894.31;;;7.22;58.50
71795;BME280;59641;45.188;5.712;2024-01-10T11:22:07;99895.41;;;7.28;58.69
71795;BME280;59641;45.188;5.712;2024-01-10T11:24:35;99895.22;;;7.30;58.69
71795;BME280;59641;45.188;5.712;2024-01-10T11:27:13;99883.34;;;7.32;58.61
71795;BME280;59641;45.188;5.712;2024-01-10T11:29:39;99885.00;;;7.33;58.58
71795;BME280;59641;45.188;5.712;2024-01-10T11:32:14;99881.13;;;7.36;58.66
71795;BME280;59641;45.188;5.712;2024-01-10T11:34:59;99877.47;;;7.37;58.52
71795;BME280;59641;45.188;5.712;2024-01-10T11:37:37;99872.94;;;7.37;58.48
71795;BME280;59641;45.188;5.712;2024-01-10T11:40:07;99869.25;;;7.38;58.59
71795;BME280;59641;45.188;5.712;2024-01-10T11:42:43;99864.38;;;7.42;58.44
71795;BME280;59641;45.188;5.712;2024-01-10T11:45:09;99865.41;;;7.41;58.54
71795;BME280;59641;45.188;5.712;2024-01-10T11:47:38;99871.19;;;7.44;58.23
71795;BME280;59641;45.188;5.712;2024-01-10T11:50:07;99859.28;;;7.47;58.41
71795;BME280;59641;45.188;5.712;2024-01-10T11:52:33;99861.78;;;7.49;58.46
71795;BME280;59641;45.188;5.712;2024-01-10T11:55:02;99858.09;;;7.50;58.23
71795;BME280;59641;45.188;5.712;2024-01-10T11:57:29;99848.06;;;7.52;58.54
71795;BME280;59641;45.188;5.712;2024-01-10T11:59:58;99843.19;;;7.55;58.53
71795;BME280;59641;45.188;5.712;2024-01-10T12:02:26;99832.94;;;7.59;58.70
71795;BME280;59641;45.188;5.712;2024-01-10T12:04:54;99832.53;;;7.62;58.58
71795;BME280;59641;45.188;5.712;2024-01-10T12:07:20;99831.16;;;7.66;58.60
71795;BME280;59641;45.188;5.712;2024-01-10T12:09:48;99830.78;;;7.69;58.46
71795;BME280;59641;45.188;5.712;2024-01-10T12:12:14;99826.25;;;7.69;58.58
71795;BME280;59641;45.188;5.712;2024-01-10T12:14:40;99822.56;;;7.71;58.52
71795;BME280;59641;45.188;5.712;2024-01-10T12:17:06;99822.41;;;7.72;58.54
71795;BME280;59641;45.188;5.712;2024-01-10T12:19:34;99822.19;;;7.74;58.40
71795;BME280;59641;45.188;5.712;2024-01-10T12:22:00;99818.53;;;7.75;58.37
71795;BME280;59641;45.188;5.712;2024-01-10T12:24:27;99817.50;;;7.76;58.32
71795;BME280;59641;45.188;5.712;2024-01-10T12:26:55;99820.81;;;7.78;58.55
71795;BME280;59641;45.188;5.712;2024-01-10T12:29:20;99818.56;;;7.81;58.53
71795;BME280;59641;45.188;5.712;2024-01-10T12:31:46;99813.03;;;7.83;58.41
71795;BME280;59641;45.188;5.712;2024-01-10T12:34:12;99806.47;;;7.85;58.42
71795;BME280;59641;45.188;5.712;2024-01-10T12:36:37;99809.78;;;7.87;58.53
71795;BME280;59641;45.188;5.712;2024-01-10T12:39:03;99802.81;;;7.86;58.37
71795;BME280;59641;45.188;5.712;2024-01-10T12:41:31;99804.44;;;7.87;58.20
71795;BME280;59641;45.188;5.712;2024-01-10T12:43:59;99798.28;;;7.87;58.52
71795;BME280;59641;45.188;5.712;2024-01-10T12:46:27;99798.06;;;7.88;58.51
71795;BME280;59641;45.188;5.712;2024-01-10T12:49:01;99796.25;;;7.89;58.26
71795;BME280;59641;45.188;5.712;2024-01-10T12:51:28;99795.78;;;7.85;58.12
71795;BME280;59641;45.188;5.712;2024-01-10T12:53:57;99793.13;;;7.85;58.17
71795;BME280;59641;45.188;5.712;2024-01-10T12:56:24;99792.94;;;7.87;58.15
71795;BME280;59641;45.188;5.712;2024-01-10T12:58:50;99791.91;;;7.88;58.02
71795;BME280;59641;45.188;5.712;2024-01-10T13:01:15;99798.28;;;7.87;58.17
71795;BME280;59641;45.188;5.712;2024-01-10T13:03:40;99801.59;;;7.89;58.20
71795;BME280;59641;45.188;5.712;2024-01-10T13:06:06;99799.09;;;7.87;57.79
71795;BME280;59641;45.188;5.712;2024-01-10T13:08:31;99798.47;;;7.85;58.00
71795;BME280;59641;45.188;5.712;2024-01-10T13:10:57;99795.38;;;7.82;58.14
71795;BME280;59641;45.188;5.712;2024-01-10T13:13:23;99800.06;;;7.80;58.17
71795;BME280;59641;45.188;5.712;2024-01-10T13:15:48;99806.22;;;7.80;58.18
71795;BME280;59641;45.188;5.712;2024-01-10T13:18:14;99793.69;;;7.81;58.24
71795;BME280;59641;45.188;5.712;2024-01-10T13:20:41;99799.69;;;7.83;58.28
71795;BME280;59641;45.188;5.712;2024-01-10T13:23:06;99799.84;;;7.81;58.21
71795;BME280;59641;45.188;5.712;2024-01-10T13:25:33;99801.53;;;7.82;58.27
71795;BME280;59641;45.188;5.712;2024-01-10T13:27:59;99792.31;;;7.85;58.26
71795;BME280;59641;45.188;5.712;2024-01-10T13:30:26;99800.97;;;7.87;58.62
71795;BME280;59641;45.188;5.712;2024-01-10T13:32:51;99797.91;;;7.90;58.43
71795;BME280;59641;45.188;5.712;2024-01-10T13:35:17;99802.03;;;7.93;58.42
71795;BME280;59641;45.188;5.712;2024-01-10T13:37:42;99807.38;;;7.93;58.35
71795;BME280;59641;45.188;5.712;2024-01-10T13:40:11;99805.34;;;7.95;58.21